createdAt,value
2019-03-04T00:00:14.616Z,992.59
2019-03-04T00:01:14.590Z,992.61
2019-03-04T00:02:14.568Z,992.46
2019-03-04T00:03:14.555Z,992.53
2019-03-04T00:04:14.555Z,992.53
2019-03-04T00:05:14.558Z,992.49
2019-03-04T00:06:14.522Z,992.44
2019-03-04T00:07:14.517Z,992.34
2019-03-04T00:08:14.524Z,992.49
2019-03-04T00:09:14.490Z,992.37
2019-03-04T00:10:14.531Z,992.41
2019-03-04T00:11:14.465Z,992.45
2019-03-04T00:12:14.455Z,992.54
2019-03-04T00:13:14.444Z,992.53
2019-03-04T00:14:14.431Z,992.58
2019-03-04T00:15:14.446Z,992.35
2019-03-04T00:16:14.418Z,992.54
2019-03-04T00:17:14.409Z,992.46
2019-03-04T00:18:14.394Z,992.38
2019-03-04T00:19:14.377Z,992.39
2019-03-04T00:20:14.397Z,992.49
2019-03-04T00:21:14.360Z,992.45
2019-03-04T00:22:14.354Z,992.55
2019-03-04T00:23:14.333Z,992.61
2019-03-04T00:24:14.320Z,992.56
2019-03-04T00:25:14.350Z,992.42
2019-03-04T00:26:14.316Z,992.33
2019-03-04T00:27:14.289Z,992.37
2019-03-04T00:28:14.277Z,992.45
2019-03-04T00:29:14.269Z,992.19
2019-03-04T00:30:14.288Z,992.18
2019-03-04T00:31:14.240Z,992.05
2019-03-04T00:32:14.230Z,992.17
2019-03-04T00:33:14.236Z,992.25
2019-03-04T00:34:14.205Z,992.17
2019-03-04T00:35:14.222Z,992.12
2019-03-04T00:36:14.184Z,992.22
2019-03-04T00:37:14.172Z,992.13
2019-03-04T00:38:14.174Z,992.06
2019-03-04T00:39:14.150Z,991.92
2019-03-04T00:40:14.150Z,992.01
2019-03-04T00:41:14.152Z,992.00
2019-03-04T00:42:14.121Z,992.01
2019-03-04T00:43:14.105Z,992.01
2019-03-04T00:44:14.101Z,992.11
2019-03-04T00:45:14.082Z,992.06
2019-03-04T00:46:14.096Z,992.04
2019-03-04T00:47:14.059Z,992.04
2019-03-04T00:48:14.061Z,992.12
2019-03-04T00:49:14.038Z,991.99
2019-03-04T00:50:14.038Z,991.99
2019-03-04T00:51:14.042Z,991.92
2019-03-04T00:52:14.006Z,991.81
2019-03-04T00:53:13.991Z,991.71
2019-03-04T00:54:13.983Z,991.61
2019-03-04T00:55:13.967Z,991.53
2019-03-04T00:56:13.983Z,991.41
2019-03-04T00:57:13.945Z,991.27
2019-03-04T00:58:13.938Z,991.02
2019-03-04T00:59:13.938Z,991.14
2019-03-04T01:00:13.929Z,991.29
2019-03-04T01:01:13.944Z,991.28
2019-03-04T01:02:13.940Z,991.41
2019-03-04T01:03:13.880Z,991.30
2019-03-04T01:04:13.868Z,991.30
2019-03-04T01:05:13.854Z,991.12
2019-03-04T01:06:13.874Z,990.96
2019-03-04T01:07:13.835Z,990.79
2019-03-04T01:08:13.876Z,990.78
2019-03-04T01:09:13.812Z,990.65
2019-03-04T01:10:13.804Z,990.76
2019-03-04T01:11:13.813Z,990.63
2019-03-04T01:12:13.777Z,990.68
2019-03-04T01:13:13.769Z,990.62
2019-03-04T01:14:13.754Z,990.72
2019-03-04T01:15:13.742Z,990.74
2019-03-04T01:16:13.760Z,990.78
2019-03-04T01:17:13.755Z,990.71
2019-03-04T01:18:13.708Z,990.75
2019-03-04T01:19:13.697Z,990.95
2019-03-04T01:20:13.686Z,990.99
2019-03-04T01:21:13.700Z,990.95
2019-03-04T01:22:13.665Z,991.17
2019-03-04T01:23:13.651Z,991.05
2019-03-04T01:24:13.672Z,991.15
2019-03-04T01:25:13.630Z,991.08
2019-03-04T01:26:13.628Z,991.05
2019-03-04T01:27:13.633Z,991.13
2019-03-04T01:28:13.599Z,991.17
2019-03-04T01:29:13.585Z,991.30
2019-03-04T01:30:13.579Z,991.17
2019-03-04T01:31:13.564Z,991.15
2019-03-04T01:32:13.577Z,991.08
2019-03-04T01:33:13.541Z,991.15
2019-03-04T01:34:13.557Z,991.00
2019-03-04T01:35:13.518Z,990.89
2019-03-04T01:36:13.505Z,990.85
2019-03-04T01:37:13.517Z,990.75
2019-03-04T01:38:13.483Z,990.58
2019-03-04T01:39:13.470Z,990.51
2019-03-04T01:40:13.462Z,990.51
2019-03-04T01:41:13.489Z,990.44
2019-03-04T01:42:13.463Z,990.14
2019-03-04T01:43:13.424Z,990.35
2019-03-04T01:44:13.416Z,990.08
2019-03-04T01:45:13.406Z,990.11
2019-03-04T01:46:13.391Z,990.25
2019-03-04T01:47:13.422Z,990.16
2019-03-04T01:48:13.375Z,990.33
2019-03-04T01:49:13.358Z,990.46
2019-03-04T01:50:13.347Z,990.44
2019-03-04T01:51:13.337Z,990.47
2019-03-04T01:52:13.350Z,990.30
2019-03-04T01:53:13.337Z,990.40
2019-03-04T01:54:13.298Z,990.50
2019-03-04T01:55:13.294Z,990.52
2019-03-04T01:56:13.278Z,990.15
2019-03-04T01:57:13.293Z,990.29
2019-03-04T01:58:13.282Z,990.22
2019-03-04T01:59:13.247Z,990.30
2019-03-04T02:00:13.241Z,990.35
2019-03-04T02:01:13.228Z,989.94
2019-03-04T02:02:13.241Z,990.00
2019-03-04T02:03:13.217Z,989.93
2019-03-04T02:04:13.193Z,989.76
2019-03-04T02:05:13.175Z,989.46
2019-03-04T02:06:13.167Z,989.01
2019-03-04T02:07:13.183Z,989.26
2019-03-04T02:08:13.142Z,989.39
2019-03-04T02:09:13.140Z,989.16
2019-03-04T02:10:13.144Z,988.97
2019-03-04T02:11:13.113Z,989.03
2019-03-04T02:12:13.143Z,988.93
2019-03-04T02:13:13.089Z,989.00
2019-03-04T02:14:13.087Z,989.03
2019-03-04T02:15:13.067Z,989.13
2019-03-04T02:16:13.054Z,989.04
2019-03-04T02:17:13.042Z,989.02
2019-03-04T02:18:13.058Z,989.05
2019-03-04T02:19:13.037Z,989.14
2019-03-04T02:20:13.004Z,989.24
2019-03-04T02:21:13.001Z,989.02
2019-03-04T02:22:12.987Z,989.18
2019-03-04T02:23:13.004Z,989.01
2019-03-04T02:24:12.965Z,989.09
2019-03-04T02:25:12.953Z,989.17
2019-03-04T02:26:12.938Z,989.14
2019-03-04T02:27:12.967Z,989.16
2019-03-04T02:28:12.943Z,989.06
2019-03-04T02:29:12.909Z,989.10
2019-03-04T02:30:12.893Z,989.03
2019-03-04T02:31:12.882Z,988.99
2019-03-04T02:32:12.870Z,988.88
2019-03-04T02:33:12.888Z,988.91
2019-03-04T02:34:12.848Z,988.86
2019-03-04T02:35:12.841Z,988.73
2019-03-04T02:36:12.855Z,988.96
2019-03-04T02:37:12.825Z,988.67
2019-03-04T02:38:12.895Z,988.75
2019-03-04T02:39:12.797Z,988.73
2019-03-04T02:40:12.781Z,988.76
2019-03-04T02:41:12.773Z,988.86
2019-03-04T02:42:12.761Z,988.91
2019-03-04T02:43:12.850Z,989.03
2019-03-04T02:44:12.740Z,988.91
2019-03-04T02:45:12.728Z,988.94
2019-03-04T02:46:12.719Z,988.91
2019-03-04T02:47:12.705Z,988.98
2019-03-04T02:48:12.719Z,988.95
2019-03-04T02:49:12.683Z,989.02
2019-03-04T02:50:12.669Z,989.05
2019-03-04T02:51:12.655Z,989.00
2019-03-04T02:52:12.654Z,988.90
2019-03-04T02:53:12.663Z,989.02
2019-03-04T02:54:12.621Z,989.11
2019-03-04T02:55:12.634Z,989.11
2019-03-04T02:56:12.599Z,989.12
2019-03-04T02:57:12.587Z,989.14
2019-03-04T02:58:12.577Z,989.14
2019-03-04T02:59:12.593Z,989.16
2019-03-04T03:00:12.555Z,988.97
2019-03-04T03:01:12.542Z,988.89
2019-03-04T03:02:12.558Z,988.94
2019-03-04T03:03:12.519Z,988.80
2019-03-04T03:04:12.544Z,988.79
2019-03-04T03:05:12.497Z,988.63
2019-03-04T03:06:12.486Z,988.57
2019-03-04T03:07:12.477Z,988.50
2019-03-04T03:08:12.464Z,988.49
2019-03-04T03:09:12.501Z,988.43
2019-03-04T03:10:12.444Z,988.42
2019-03-04T03:11:12.431Z,988.40
2019-03-04T03:12:12.421Z,988.34
2019-03-04T03:13:12.414Z,988.33
2019-03-04T03:14:12.421Z,988.34
2019-03-04T03:15:12.387Z,988.13
2019-03-04T03:16:12.380Z,988.19
2019-03-04T03:17:12.367Z,988.15
2019-03-04T03:18:12.353Z,988.01
2019-03-04T03:19:12.374Z,988.01
2019-03-04T03:20:12.330Z,987.69
2019-03-04T03:21:12.315Z,987.86
2019-03-04T03:22:12.349Z,987.77
2019-03-04T03:23:12.293Z,987.96
2019-03-04T03:24:12.308Z,988.07
2019-03-04T03:25:12.277Z,987.95
2019-03-04T03:26:12.260Z,988.12
2019-03-04T03:27:12.253Z,988.18
2019-03-04T03:28:12.240Z,988.09
2019-03-04T03:29:12.243Z,988.05
2019-03-04T03:30:12.240Z,987.97
2019-03-04T03:31:12.203Z,987.86
2019-03-04T03:32:12.195Z,988.00
2019-03-04T03:33:12.180Z,987.85
2019-03-04T03:34:12.175Z,988.00
2019-03-04T03:35:12.186Z,987.71
2019-03-04T03:36:12.151Z,987.92
2019-03-04T03:37:12.181Z,987.89
2019-03-04T03:38:12.124Z,987.94
2019-03-04T03:39:12.114Z,988.02
2019-03-04T03:40:12.128Z,987.61
2019-03-04T03:41:12.091Z,987.75
2019-03-04T03:42:12.081Z,987.80
2019-03-04T03:43:12.076Z,987.74
2019-03-04T03:44:12.054Z,987.82
2019-03-04T03:45:12.068Z,987.91
2019-03-04T03:46:12.033Z,987.77
2019-03-04T03:47:12.024Z,987.60
2019-03-04T03:48:12.010Z,987.58
2019-03-04T03:49:12.024Z,987.49
2019-03-04T03:50:12.014Z,987.48
2019-03-04T03:51:11.979Z,987.31
2019-03-04T03:52:11.962Z,987.36
2019-03-04T03:53:11.956Z,987.14
2019-03-04T03:54:11.945Z,987.45
2019-03-04T03:55:11.971Z,987.43
2019-03-04T03:56:11.924Z,987.72
2019-03-04T03:57:11.909Z,987.64
2019-03-04T03:58:11.901Z,987.74
2019-03-04T03:59:11.888Z,987.69
2019-03-04T04:00:11.904Z,987.68
2019-03-04T04:01:11.866Z,987.70
2019-03-04T04:02:11.853Z,987.83
2019-03-04T04:03:11.856Z,987.70
2019-03-04T04:04:11.833Z,987.52
2019-03-04T04:05:11.859Z,987.44
2019-03-04T04:06:11.837Z,987.73
2019-03-04T04:07:11.796Z,987.70
2019-03-04T04:08:11.786Z,987.75
2019-03-04T04:09:11.792Z,987.60
2019-03-04T04:10:11.824Z,987.61
2019-03-04T04:11:11.749Z,987.54
2019-03-04T04:12:11.747Z,987.32
2019-03-04T04:13:11.734Z,987.24
2019-03-04T04:14:11.724Z,987.15
2019-03-04T04:15:11.711Z,986.88
2019-03-04T04:16:11.746Z,986.97
2019-03-04T04:17:11.683Z,986.69
2019-03-04T04:18:11.741Z,986.72
2019-03-04T04:19:11.660Z,986.51
2019-03-04T04:20:11.651Z,986.48
2019-03-04T04:21:11.670Z,986.08
2019-03-04T04:22:11.641Z,985.83
2019-03-04T04:23:11.621Z,985.79
2019-03-04T04:24:11.608Z,985.99
2019-03-04T04:25:11.592Z,985.91
2019-03-04T04:26:11.609Z,985.99
2019-03-04T04:27:11.573Z,985.89
2019-03-04T04:28:11.559Z,985.84
2019-03-04T04:29:11.588Z,985.82
2019-03-04T04:30:11.542Z,985.49
2019-03-04T04:31:11.555Z,985.64
2019-03-04T04:32:11.544Z,985.63
2019-03-04T04:33:11.536Z,985.52
2019-03-04T04:34:11.489Z,985.37
2019-03-04T04:35:11.488Z,985.39
2019-03-04T04:36:11.469Z,985.25
2019-03-04T04:37:11.479Z,985.36
2019-03-04T04:38:11.450Z,985.34
2019-03-04T04:39:11.432Z,985.37
2019-03-04T04:40:11.427Z,985.46
2019-03-04T04:41:11.423Z,985.59
2019-03-04T04:42:11.451Z,985.59
2019-03-04T04:43:11.389Z,985.49
2019-03-04T04:44:11.376Z,985.52
2019-03-04T04:45:11.364Z,985.72
2019-03-04T04:46:11.354Z,985.67
2019-03-04T04:47:11.367Z,985.75
2019-03-04T04:48:11.348Z,985.71
2019-03-04T04:49:11.325Z,985.81
2019-03-04T04:50:11.317Z,985.85
2019-03-04T04:51:11.296Z,985.32
2019-03-04T04:52:11.322Z,985.70
2019-03-04T04:53:11.274Z,985.46
2019-03-04T04:54:11.263Z,985.64
2019-03-04T04:55:11.252Z,985.39
2019-03-04T04:56:11.245Z,985.40
2019-03-04T04:57:11.254Z,985.61
2019-03-04T04:58:11.237Z,985.47
2019-03-04T04:59:11.211Z,985.63
2019-03-04T05:00:11.197Z,985.51
2019-03-04T05:01:11.188Z,985.65
2019-03-04T05:02:11.201Z,985.44
2019-03-04T05:03:11.176Z,985.41
2019-03-04T05:04:11.148Z,985.54
2019-03-04T05:05:11.137Z,985.42
2019-03-04T05:06:13.032Z,985.20
2019-03-04T05:07:11.167Z,985.39
2019-03-04T05:08:11.104Z,985.34
2019-03-04T05:09:11.098Z,985.20
2019-03-04T05:10:11.088Z,985.05
2019-03-04T05:11:11.076Z,985.13
2019-03-04T05:12:11.091Z,985.32
2019-03-04T05:13:11.073Z,985.21
2019-03-04T05:14:11.037Z,985.24
2019-03-04T05:15:11.027Z,985.09
2019-03-04T05:16:11.033Z,985.16
2019-03-04T05:17:11.011Z,985.34
2019-03-04T05:18:11.016Z,985.11
2019-03-04T05:19:10.983Z,985.17
2019-03-04T05:20:10.969Z,985.07
2019-03-04T05:21:10.975Z,985.08
2019-03-04T05:22:10.946Z,985.01
2019-03-04T05:23:10.960Z,984.88
2019-03-04T05:24:10.928Z,985.03
2019-03-04T05:25:10.912Z,984.92
2019-03-04T05:26:10.899Z,984.87
2019-03-04T05:27:10.903Z,984.70
2019-03-04T05:28:10.905Z,984.69
2019-03-04T05:29:10.873Z,984.91
2019-03-04T05:30:10.863Z,984.88
2019-03-04T05:31:10.853Z,984.91
2019-03-04T05:32:10.832Z,985.04
2019-03-04T05:33:10.848Z,984.87
2019-03-04T05:34:10.809Z,984.91
2019-03-04T05:35:10.831Z,984.65
2019-03-04T05:36:10.787Z,984.91
2019-03-04T05:37:10.797Z,985.03
2019-03-04T05:38:10.819Z,985.09
2019-03-04T05:39:10.752Z,985.10
2019-03-04T05:40:10.746Z,984.93
2019-03-04T05:41:10.774Z,984.87
2019-03-04T05:42:10.721Z,984.83
2019-03-04T05:43:10.736Z,984.88
2019-03-04T05:44:10.699Z,985.09
2019-03-04T05:45:10.686Z,985.24
2019-03-04T05:46:10.688Z,985.04
2019-03-04T05:47:10.666Z,984.55
2019-03-04T05:48:10.680Z,984.42
2019-03-04T05:49:10.640Z,984.69
2019-03-04T05:50:10.634Z,984.97
2019-03-04T05:51:10.622Z,984.94
2019-03-04T05:52:10.620Z,984.79
2019-03-04T05:53:10.630Z,984.70
2019-03-04T05:54:10.587Z,984.75
2019-03-04T05:55:10.580Z,984.63
2019-03-04T05:56:10.564Z,984.78
2019-03-04T05:57:10.575Z,984.60
2019-03-04T05:58:10.574Z,984.60
2019-03-04T05:59:19.318Z,984.81
2019-03-04T06:00:11.516Z,985.24
2019-03-04T06:01:10.507Z,985.12
2019-03-04T06:02:10.519Z,985.15
2019-03-04T06:03:10.482Z,985.36
2019-03-04T06:04:10.498Z,985.79
2019-03-04T06:05:10.470Z,985.33
2019-03-04T06:06:10.448Z,985.08
2019-03-04T06:07:10.443Z,984.99
2019-03-04T06:08:10.466Z,985.20
2019-03-04T06:09:10.450Z,985.25
2019-03-04T06:10:10.406Z,984.97
2019-03-04T06:11:10.392Z,985.01
2019-03-04T06:12:10.389Z,984.85
2019-03-04T06:13:10.374Z,984.80
2019-03-04T06:14:10.386Z,984.60
2019-03-04T06:15:10.346Z,984.93
2019-03-04T06:16:10.336Z,985.01
2019-03-04T06:17:10.327Z,985.13
2019-03-04T06:18:10.312Z,984.99
2019-03-04T06:19:10.332Z,985.08
2019-03-04T06:20:10.329Z,984.95
2019-03-04T06:21:10.279Z,985.03
2019-03-04T06:22:10.276Z,985.07
2019-03-04T06:23:10.257Z,984.98
2019-03-04T06:24:10.268Z,984.91
2019-03-04T06:25:10.232Z,984.93
2019-03-04T06:26:10.224Z,984.85
2019-03-04T06:27:10.211Z,984.87
2019-03-04T06:28:10.225Z,984.84
2019-03-04T06:29:10.228Z,984.78
2019-03-04T06:30:10.176Z,984.90
2019-03-04T06:31:10.167Z,984.89
2019-03-04T06:32:10.152Z,984.93
2019-03-04T06:33:10.142Z,984.94
2019-03-04T06:34:10.161Z,985.00
2019-03-04T06:35:10.139Z,985.03
2019-03-04T06:36:10.109Z,984.96
2019-03-04T06:37:10.098Z,985.22
2019-03-04T06:38:10.093Z,984.90
2019-03-04T06:39:10.092Z,985.05
2019-03-04T06:40:10.137Z,985.09
2019-03-04T06:41:10.055Z,985.17
2019-03-04T06:42:10.046Z,985.03
2019-03-04T06:43:10.029Z,984.95
2019-03-04T06:44:10.026Z,984.86
2019-03-04T06:45:10.031Z,984.90
2019-03-04T06:46:09.995Z,984.89
2019-03-04T06:47:09.987Z,984.93
2019-03-04T06:48:10.025Z,984.95
2019-03-04T06:49:09.970Z,984.76
2019-03-04T06:50:09.976Z,984.85
2019-03-04T06:51:09.973Z,984.96
2019-03-04T06:52:09.937Z,984.86
2019-03-04T06:53:09.919Z,984.86
2019-03-04T06:54:09.905Z,984.98
2019-03-04T06:55:09.933Z,984.98
2019-03-04T06:56:09.894Z,985.29
2019-03-04T06:57:09.875Z,985.85
2019-03-04T06:58:09.858Z,985.98
2019-03-04T06:59:09.850Z,986.49
2019-03-04T07:00:09.862Z,986.20
2019-03-04T07:01:09.832Z,985.98
2019-03-04T07:02:09.819Z,985.98
2019-03-04T07:03:09.839Z,986.02
2019-03-04T07:04:09.797Z,985.90
2019-03-04T07:05:09.809Z,985.96
2019-03-04T07:06:09.769Z,985.99
2019-03-04T07:07:09.763Z,985.97
2019-03-04T07:08:09.769Z,986.17
2019-03-04T07:09:09.745Z,985.81
2019-03-04T07:10:09.757Z,985.85
2019-03-04T07:11:09.717Z,985.80
2019-03-04T07:12:09.701Z,985.93
2019-03-04T07:13:09.754Z,985.94
2019-03-04T07:14:09.698Z,985.83
2019-03-04T07:15:09.699Z,985.82
2019-03-04T07:16:09.659Z,985.90
2019-03-04T07:17:09.643Z,985.92
2019-03-04T07:18:09.672Z,985.89
2019-03-04T07:19:09.642Z,985.86
2019-03-04T07:20:09.659Z,985.87
2019-03-04T07:21:09.601Z,985.87
2019-03-04T07:22:11.094Z,985.88
2019-03-04T07:23:09.579Z,985.85
2019-03-04T07:24:09.572Z,985.70
2019-03-04T07:25:09.563Z,985.80
2019-03-04T07:26:09.580Z,985.93
2019-03-04T07:27:09.533Z,985.70
2019-03-04T07:28:09.520Z,985.86
2019-03-04T07:29:09.512Z,985.89
2019-03-04T07:30:09.501Z,985.91
2019-03-04T07:31:09.513Z,985.90
2019-03-04T07:32:09.475Z,985.97
2019-03-04T07:33:09.480Z,985.85
2019-03-04T07:34:09.453Z,985.96
2019-03-04T07:35:09.440Z,986.04
2019-03-04T07:36:09.459Z,986.25
2019-03-04T07:37:09.421Z,986.22
2019-03-04T07:38:09.408Z,986.34
2019-03-04T07:39:09.399Z,986.32
2019-03-04T07:40:09.418Z,986.50
2019-03-04T07:41:09.397Z,986.54
2019-03-04T07:42:09.364Z,986.73
2019-03-04T07:43:09.353Z,986.79
2019-03-04T07:44:09.339Z,986.99
2019-03-04T07:45:09.349Z,986.95
2019-03-04T07:46:09.348Z,986.70
2019-03-04T07:47:09.364Z,986.68
2019-03-04T07:48:09.293Z,986.95
2019-03-04T07:49:09.287Z,986.84
2019-03-04T07:50:09.271Z,986.63
2019-03-04T07:51:09.303Z,986.58
2019-03-04T07:52:09.277Z,986.50
2019-03-04T07:53:09.242Z,986.69
2019-03-04T07:54:09.248Z,986.61
2019-03-04T07:55:09.216Z,986.68
2019-03-04T07:56:09.230Z,986.78
2019-03-04T07:57:09.194Z,986.45
2019-03-04T07:58:09.183Z,986.54
2019-03-04T07:59:09.170Z,986.45
2019-03-04T08:00:09.167Z,986.45
2019-03-04T08:01:09.183Z,986.43
2019-03-04T08:02:09.159Z,986.39
2019-03-04T08:03:09.558Z,986.37
2019-03-04T08:04:09.113Z,986.44
2019-03-04T08:05:09.104Z,986.24
2019-03-04T08:06:09.157Z,986.37
2019-03-04T08:07:09.082Z,986.35
2019-03-04T08:08:09.074Z,986.42
2019-03-04T08:09:09.072Z,986.42
2019-03-04T08:10:09.060Z,986.33
2019-03-04T08:11:09.063Z,986.49
2019-03-04T08:12:09.031Z,986.44
2019-03-04T08:13:09.020Z,986.41
2019-03-04T08:14:09.058Z,986.45
2019-03-04T08:15:08.999Z,986.67
2019-03-04T08:16:08.991Z,986.56
2019-03-04T08:17:08.996Z,986.58
2019-03-04T08:18:08.958Z,986.71
2019-03-04T08:19:08.954Z,986.62
2019-03-04T08:20:08.934Z,986.58
2019-03-04T08:21:08.931Z,986.53
2019-03-04T08:22:08.939Z,986.47
2019-03-04T08:23:10.153Z,986.47
2019-03-04T08:24:08.906Z,986.47
2019-03-04T08:25:08.879Z,986.52
2019-03-04T08:26:08.872Z,986.38
2019-03-04T08:27:08.883Z,986.47
2019-03-04T08:28:08.887Z,986.41
2019-03-04T08:29:08.831Z,986.41
2019-03-04T08:30:08.824Z,986.50
2019-03-04T08:31:08.810Z,986.36
2019-03-04T08:32:08.827Z,986.42
2019-03-04T08:33:08.792Z,986.33
2019-03-04T08:34:09.405Z,986.43
2019-03-04T08:35:08.777Z,986.50
2019-03-04T08:36:08.758Z,986.39
2019-03-04T08:37:08.769Z,986.55
2019-03-04T08:38:08.740Z,986.43
2019-03-04T08:39:08.732Z,986.44
2019-03-04T08:40:08.708Z,986.50
2019-03-04T08:41:08.702Z,986.50
2019-03-04T08:42:08.713Z,986.52
2019-03-04T08:43:08.678Z,986.55
2019-03-04T08:44:08.671Z,986.38
2019-03-04T08:45:08.789Z,986.55
2019-03-04T08:46:08.722Z,986.67
2019-03-04T08:47:08.655Z,986.48
2019-03-04T08:48:08.684Z,986.71
2019-03-04T08:49:08.759Z,986.45
2019-03-04T08:50:09.601Z,986.47
2019-03-04T08:51:08.586Z,986.56
2019-03-04T08:52:08.599Z,986.66
2019-03-04T08:53:08.565Z,986.54
2019-03-04T08:54:08.554Z,986.59
2019-03-04T08:55:08.542Z,986.47
2019-03-04T08:56:08.541Z,986.64
2019-03-04T08:57:08.545Z,986.49
2019-03-04T08:58:08.508Z,986.63
2019-03-04T08:59:08.499Z,986.39
2019-03-04T09:00:08.492Z,986.29
2019-03-04T09:01:08.499Z,986.34
2019-03-04T09:02:08.495Z,986.43
2019-03-04T09:03:08.452Z,986.34
2019-03-04T09:04:08.445Z,986.48
2019-03-04T09:05:08.426Z,986.38
2019-03-04T09:06:08.455Z,986.40
2019-03-04T09:07:08.430Z,986.49
2019-03-04T09:08:08.397Z,986.61
2019-03-04T09:09:08.383Z,986.53
2019-03-04T09:10:08.372Z,986.38
2019-03-04T09:11:08.360Z,986.57
2019-03-04T09:12:08.374Z,986.51
2019-03-04T09:13:08.347Z,986.54
2019-03-04T09:14:08.332Z,986.48
2019-03-04T09:15:08.324Z,986.57
2019-03-04T09:16:08.307Z,986.67
2019-03-04T09:17:10.726Z,986.62
2019-03-04T09:18:08.313Z,986.64
2019-03-04T09:19:08.289Z,986.65
2019-03-04T09:20:08.257Z,986.56
2019-03-04T09:21:08.260Z,986.78
2019-03-04T09:22:08.238Z,986.70
2019-03-04T09:23:08.251Z,986.62
2019-03-04T09:24:08.214Z,986.68
2019-03-04T09:25:08.223Z,986.60
2019-03-04T09:26:08.196Z,986.81
2019-03-04T09:27:08.177Z,986.54
2019-03-04T09:28:08.225Z,986.71
2019-03-04T09:29:08.159Z,986.65
2019-03-04T09:30:08.144Z,986.65
2019-03-04T09:31:08.142Z,986.56
2019-03-04T09:32:08.128Z,986.55
2019-03-04T09:33:08.138Z,986.60
2019-03-04T09:34:08.099Z,986.58
2019-03-04T09:35:08.092Z,986.75
2019-03-04T09:36:08.079Z,986.58
2019-03-04T09:37:08.071Z,986.65
2019-03-04T09:38:08.086Z,986.72
2019-03-04T09:39:08.048Z,986.56
2019-03-04T09:40:08.051Z,986.64
2019-03-04T09:41:08.025Z,986.66
2019-03-04T09:42:08.009Z,986.75
2019-03-04T09:43:08.056Z,986.68
2019-03-04T09:44:07.988Z,986.56
2019-03-04T09:45:07.979Z,986.64
2019-03-04T09:46:07.963Z,986.72
2019-03-04T09:47:07.951Z,986.57
2019-03-04T09:48:07.984Z,986.74
2019-03-04T09:49:07.928Z,986.71
2019-03-04T09:50:07.945Z,986.83
2019-03-04T09:51:07.919Z,986.70
2019-03-04T09:52:07.895Z,986.68
2019-03-04T09:53:07.932Z,986.59
2019-03-04T09:54:07.882Z,986.73
2019-03-04T09:55:07.865Z,986.53
2019-03-04T09:56:07.853Z,986.63
2019-03-04T09:57:07.842Z,986.66
2019-03-04T09:58:07.852Z,986.62
2019-03-04T09:59:07.816Z,986.72
2019-03-04T10:00:07.805Z,986.58
2019-03-04T10:01:07.794Z,986.57
2019-03-04T10:02:07.785Z,986.67
2019-03-04T10:03:07.824Z,986.64
2019-03-04T10:04:07.761Z,986.67
2019-03-04T10:05:07.749Z,986.68
2019-03-04T10:06:07.738Z,986.55
2019-03-04T10:07:07.729Z,986.66
2019-03-04T10:08:07.741Z,986.63
2019-03-04T10:09:07.712Z,986.68
2019-03-04T10:10:07.712Z,986.74
2019-03-04T10:11:07.685Z,986.54
2019-03-04T10:12:07.704Z,986.77
2019-03-04T10:13:07.659Z,986.42
2019-03-04T10:14:07.673Z,986.62
2019-03-04T10:15:08.701Z,986.61
2019-03-04T10:16:07.658Z,986.64
2019-03-04T10:17:07.611Z,986.53
2019-03-04T10:18:07.604Z,986.56
2019-03-04T10:19:07.616Z,986.54
2019-03-04T10:20:07.583Z,986.35
2019-03-04T10:21:07.570Z,986.39
2019-03-04T10:22:07.564Z,986.41
2019-03-04T10:23:07.546Z,986.44
2019-03-04T10:24:07.563Z,986.42
2019-03-04T10:25:07.523Z,986.45
2019-03-04T10:26:07.511Z,986.38
2019-03-04T10:27:07.503Z,986.39
2019-03-04T10:28:07.497Z,986.43
2019-03-04T10:29:07.503Z,986.23
2019-03-04T10:30:07.479Z,986.34
2019-03-04T10:31:07.454Z,986.43
2019-03-04T10:32:07.443Z,986.28
2019-03-04T10:33:07.435Z,986.48
2019-03-04T10:34:07.449Z,986.65
2019-03-04T10:35:07.424Z,986.20
2019-03-04T10:36:07.403Z,986.17
2019-03-04T10:37:07.414Z,986.18
2019-03-04T10:38:07.376Z,986.23
2019-03-04T10:39:07.387Z,986.13
2019-03-04T10:40:07.353Z,986.24
2019-03-04T10:41:07.342Z,986.07
2019-03-04T10:42:07.332Z,986.10
2019-03-04T10:43:07.327Z,986.08
2019-03-04T10:44:07.332Z,986.13
2019-03-04T10:45:07.338Z,986.23
2019-03-04T10:46:07.285Z,986.07
2019-03-04T10:47:07.273Z,986.01
2019-03-04T10:48:07.266Z,986.21
2019-03-04T10:49:07.251Z,986.06
2019-03-04T10:50:07.274Z,986.17
2019-03-04T10:51:07.240Z,986.09
2019-03-04T10:52:07.216Z,986.17
2019-03-04T10:53:07.233Z,985.89
2019-03-04T10:54:07.203Z,985.99
2019-03-04T10:55:07.209Z,985.90
2019-03-04T10:56:07.172Z,985.92
2019-03-04T10:57:07.163Z,985.89
2019-03-04T10:58:07.151Z,985.90
2019-03-04T10:59:07.162Z,985.90
2019-03-04T11:00:07.153Z,985.82
2019-03-04T11:01:07.119Z,985.92
2019-03-04T11:02:07.103Z,985.88
2019-03-04T11:03:07.101Z,985.76
2019-03-04T11:04:07.080Z,986.30
2019-03-04T11:05:07.133Z,985.91
2019-03-04T11:06:07.059Z,985.97
2019-03-04T11:07:07.051Z,985.72
2019-03-04T11:08:07.036Z,985.73
2019-03-04T11:09:07.025Z,986.07
2019-03-04T11:10:07.045Z,985.96
2019-03-04T11:11:07.011Z,985.84
2019-03-04T11:12:06.991Z,985.70
2019-03-04T11:13:06.981Z,985.97
2019-03-04T11:14:06.969Z,985.94
2019-03-04T11:15:06.986Z,986.10
2019-03-04T11:16:06.952Z,986.09
2019-03-04T11:17:06.937Z,985.85
2019-03-04T11:18:06.924Z,985.94
2019-03-04T11:19:06.948Z,985.85
2019-03-04T11:20:06.928Z,985.91
2019-03-04T11:21:06.889Z,986.01
2019-03-04T11:22:06.876Z,985.81
2019-03-04T11:23:06.865Z,986.22
2019-03-04T11:24:06.854Z,985.83
2019-03-04T11:25:06.868Z,985.84
2019-03-04T11:26:06.843Z,986.07
2019-03-04T11:27:06.829Z,986.35
2019-03-04T11:28:06.810Z,985.76
2019-03-04T11:29:06.801Z,986.02
2019-03-04T11:30:06.843Z,985.90
2019-03-04T11:31:06.781Z,986.08
2019-03-04T11:32:06.767Z,985.96
2019-03-04T11:33:06.755Z,985.96
2019-03-04T11:34:06.751Z,985.91
2019-03-04T11:35:06.746Z,985.79
2019-03-04T11:36:06.745Z,985.88
2019-03-04T11:37:06.710Z,985.97
2019-03-04T11:38:06.700Z,986.02
2019-03-04T11:39:06.687Z,985.83
2019-03-04T11:40:06.680Z,985.81
2019-03-04T11:41:06.698Z,986.15
2019-03-04T11:42:06.681Z,986.15
2019-03-04T11:43:06.644Z,986.25
2019-03-04T11:44:06.627Z,985.97
2019-03-04T11:45:06.628Z,986.13
2019-03-04T11:46:06.641Z,985.92
2019-03-04T11:47:06.598Z,986.10
2019-03-04T11:48:06.585Z,986.01
2019-03-04T11:49:06.580Z,986.28
2019-03-04T11:50:06.584Z,986.02
2019-03-04T11:51:06.577Z,986.10
2019-03-04T11:52:06.537Z,986.24
2019-03-04T11:53:06.551Z,986.02
2019-03-04T11:54:06.524Z,986.08
2019-03-04T11:55:06.505Z,986.01
2019-03-04T11:56:06.532Z,986.12
2019-03-04T11:57:06.484Z,986.49
2019-03-04T11:58:06.468Z,986.10
2019-03-04T11:59:06.471Z,986.25
2019-03-04T12:00:06.446Z,986.02
2019-03-04T12:01:06.471Z,985.99
2019-03-04T12:02:06.428Z,986.28
2019-03-04T12:03:06.415Z,986.15
2019-03-04T12:04:06.408Z,986.41
2019-03-04T12:05:06.393Z,986.22
2019-03-04T12:06:06.424Z,986.03
2019-03-04T12:07:06.370Z,986.12
2019-03-04T12:08:06.358Z,986.38
2019-03-04T12:09:06.377Z,986.15
2019-03-04T12:10:06.334Z,986.13
2019-03-04T12:11:06.352Z,986.38
2019-03-04T12:12:06.312Z,986.23
2019-03-04T12:13:06.305Z,986.43
2019-03-04T12:14:06.346Z,986.46
2019-03-04T12:15:06.290Z,986.55
2019-03-04T12:16:06.293Z,986.54
2019-03-04T12:17:06.264Z,986.81
2019-03-04T12:18:06.250Z,986.90
2019-03-04T12:19:06.239Z,987.49
2019-03-04T12:20:06.222Z,987.64
2019-03-04T12:21:06.213Z,987.67
2019-03-04T12:22:06.222Z,987.38
2019-03-04T12:23:06.187Z,987.82
2019-03-04T12:24:06.203Z,987.53
2019-03-04T12:25:06.164Z,987.51
2019-03-04T12:26:06.161Z,987.76
2019-03-04T12:27:06.167Z,988.12
2019-03-04T12:28:06.133Z,987.92